createdAt,value
2023-01-12T00:02:20.820Z,100601.94
2023-01-12T00:04:47.461Z,100607.47
2023-01-12T00:07:15.876Z,100617.34
2023-01-12T00:09:42.400Z,100626.25
2023-01-12T00:12:11.560Z,100620.88
2023-01-12T00:14:38.626Z,100628.53
2023-01-12T00:17:06.255Z,100630.59
2023-01-12T00:19:33.595Z,100630.34
2023-01-12T00:22:11.454Z,100634.22
2023-01-12T00:24:40.615Z,100633.81
2023-01-12T00:27:09.785Z,100628.31
2023-01-12T00:29:37.301Z,100611.53
2023-01-12T00:32:05.319Z,100608.66
2023-01-12T00:34:32.091Z,100607.88
2023-01-12T00:37:00.644Z,100597.69
2023-01-12T00:39:27.365Z,100592.16
2023-01-12T00:42:12.249Z,100592.00
2023-01-12T00:44:57.504Z,100591.41
2023-01-12T00:47:23.998Z,100594.88
2023-01-12T00:49:50.490Z,100598.66
2023-01-12T00:52:29.951Z,100592.25
2023-01-12T00:54:57.420Z,100593.34
2023-01-12T00:57:24.029Z,100588.56
2023-01-12T00:59:51.589Z,100585.25
2023-01-12T01:02:18.238Z,100586.72
2023-01-12T01:04:45.115Z,100578.06
2023-01-12T01:07:13.493Z,100576.47
2023-01-12T01:09:40.008Z,100576.56
2023-01-12T01:12:06.864Z,100585.72
2023-01-12T01:14:33.336Z,100577.44
2023-01-12T01:16:59.877Z,100584.78
2023-01-12T01:19:26.357Z,100594.28
2023-01-12T01:21:52.864Z,100592.50
2023-01-12T01:24:19.404Z,100595.47
2023-01-12T01:26:45.932Z,100600.19
2023-01-12T01:29:12.435Z,100583.91
2023-01-12T01:31:39.006Z,100570.31
2023-01-12T01:34:05.855Z,100565.94
2023-01-12T01:36:32.420Z,100555.50
2023-01-12T01:38:59.059Z,100560.44
2023-01-12T01:41:30.984Z,100550.06
2023-01-12T01:44:00.121Z,100549.59
2023-01-12T01:46:42.104Z,100552.72
2023-01-12T01:49:18.063Z,100543.84
2023-01-12T01:51:45.968Z,100551.06
2023-01-12T01:54:14.550Z,100541.06
2023-01-12T01:56:41.539Z,100545.19
2023-01-12T01:59:14.520Z,100544.28
2023-01-12T02:01:41.230Z,100543.97
2023-01-12T02:04:08.428Z,100539.97
2023-01-12T02:07:15.410Z,100545.53
2023-01-12T02:09:41.937Z,100532.16
2023-01-12T02:12:27.471Z,100518.53
2023-01-12T02:15:13.959Z,100512.50
2023-01-12T02:18:04.990Z,100507.22
2023-01-12T02:20:48.665Z,100504.78
2023-01-12T02:23:42.512Z,100521.31
2023-01-12T02:26:40.785Z,100514.53
2023-01-12T02:29:07.176Z,100517.09
2023-01-12T02:31:48.760Z,100506.84
2023-01-12T02:34:24.587Z,100496.38
2023-01-12T02:37:06.931Z,100495.16
2023-01-12T02:39:43.652Z,100483.34
2023-01-12T02:42:42.252Z,100483.34
2023-01-12T02:45:35.959Z,100478.75
2023-01-12T02:48:30.060Z,100484.56
2023-01-12T02:51:14.644Z,100489.50
2023-01-12T02:53:51.104Z,100482.38
2023-01-12T02:56:37.255Z,100476.31
2023-01-12T02:59:09.286Z,100464.03
2023-01-12T03:01:37.513Z,100469.25
2023-01-12T03:04:07.840Z,100466.94
2023-01-12T03:06:48.101Z,100469.59
2023-01-12T03:09:17.371Z,100450.78
2023-01-12T03:11:48.695Z,100469.34
2023-01-12T03:14:17.309Z,100449.09
2023-01-12T03:16:43.963Z,100459.72
2023-01-12T03:19:25.742Z,100443.91
2023-01-12T03:21:55.000Z,100459.72
2023-01-12T03:24:46.437Z,100454.53
2023-01-12T03:27:16.603Z,100457.25
2023-01-12T03:29:47.222Z,100461.53
2023-01-12T03:32:14.149Z,100461.38
2023-01-12T03:34:40.719Z,100456.69
2023-01-12T03:37:19.332Z,100460.06
2023-01-12T03:39:56.736Z,100457.88
2023-01-12T03:42:28.688Z,100463.53
2023-01-12T03:44:58.027Z,100454.75
2023-01-12T03:47:29.830Z,100464.63
2023-01-12T03:50:01.470Z,100443.06
2023-01-12T03:52:29.973Z,100441.97
2023-01-12T03:54:59.484Z,100455.13
2023-01-12T03:57:26.635Z,100444.50
2023-01-12T03:59:53.957Z,100447.25
2023-01-12T04:02:21.600Z,100442.22
2023-01-12T04:04:48.266Z,100444.00
2023-01-12T04:07:14.775Z,100439.78
2023-01-12T04:09:41.390Z,100436.06
2023-01-12T04:12:11.198Z,100431.22
2023-01-12T04:14:48.079Z,100427.22
2023-01-12T04:17:15.020Z,100429.38
2023-01-12T04:19:41.591Z,100428.53
2023-01-12T04:22:28.583Z,100432.44
2023-01-12T04:24:55.222Z,100416.84
2023-01-12T04:27:21.673Z,100417.47
2023-01-12T04:29:48.408Z,100404.94
2023-01-12T04:32:14.857Z,100411.91
2023-01-12T04:34:41.404Z,100409.47
2023-01-12T04:37:08.062Z,100409.91
2023-01-12T04:39:34.558Z,100415.28
2023-01-12T04:42:01.040Z,100402.47
2023-01-12T04:44:27.481Z,100407.91
2023-01-12T04:46:54.123Z,100397.53
2023-01-12T04:49:20.690Z,100394.88
2023-01-12T04:51:47.167Z,100406.31
2023-01-12T04:54:13.683Z,100386.38
2023-01-12T04:56:40.629Z,100391.78
2023-01-12T04:59:09.822Z,100395.47
2023-01-12T05:01:38.911Z,100382.31
2023-01-12T05:04:07.688Z,100393.09
2023-01-12T05:06:34.650Z,100384.66
2023-01-12T05:09:20.115Z,100384.31
2023-01-12T05:11:46.795Z,100391.13
2023-01-12T05:14:13.239Z,100395.75
2023-01-12T05:16:40.065Z,100374.66
2023-01-12T05:19:06.636Z,100379.22
2023-01-12T05:21:33.058Z,100374.22
2023-01-12T05:23:59.531Z,100371.03
2023-01-12T05:26:25.974Z,100372.88
2023-01-12T05:28:52.387Z,100366.28
2023-01-12T05:31:19.647Z,100367.13
2023-01-12T05:33:46.724Z,100366.19
2023-01-12T05:36:15.684Z,100362.19
2023-01-12T05:38:42.491Z,100371.00
2023-01-12T05:41:11.861Z,100373.84
2023-01-12T05:43:50.158Z,100360.38
2023-01-12T05:46:22.677Z,100372.50
2023-01-12T05:48:50.357Z,100370.56
2023-01-12T05:51:17.737Z,100369.13
2023-01-12T05:53:44.525Z,100366.84
2023-01-12T05:56:17.587Z,100373.47
2023-01-12T05:58:48.222Z,100369.84
2023-01-12T06:01:14.667Z,100372.53
2023-01-12T06:03:41.174Z,100368.81
2023-01-12T06:06:07.766Z,100368.72
2023-01-12T06:08:34.175Z,100369.28
2023-01-12T06:11:02.227Z,100363.47
2023-01-12T06:13:47.311Z,100357.28
2023-01-12T06:16:14.162Z,100363.19
2023-01-12T06:18:41.116Z,100355.22
2023-01-12T06:21:09.098Z,100351.34
2023-01-12T06:23:36.023Z,100349.41
2023-01-12T06:26:05.116Z,100344.16
2023-01-12T06:28:31.602Z,100347.84
2023-01-12T06:30:59.959Z,100346.50
2023-01-12T06:33:27.206Z,100355.56
2023-01-12T06:35:54.659Z,100349.34
2023-01-12T06:38:23.193Z,100347.06
2023-01-12T06:40:50.554Z,100346.03
2023-01-12T06:43:17.741Z,100346.50
2023-01-12T06:45:44.318Z,100345.44
2023-01-12T06:48:11.720Z,100339.38
2023-01-12T06:50:38.241Z,100337.28
2023-01-12T06:53:06.873Z,100339.09
2023-01-12T06:55:33.611Z,100335.44
2023-01-12T06:58:04.436Z,100334.19
2023-01-12T07:00:31.967Z,100330.13
2023-01-12T07:02:58.800Z,100332.16
2023-01-12T07:05:25.473Z,100337.28
2023-01-12T07:07:58.317Z,100332.56
2023-01-12T07:10:24.786Z,100327.72
2023-01-12T07:12:51.372Z,100324.50
2023-01-12T07:15:17.954Z,100321.06
2023-01-12T07:17:44.441Z,100327.16
2023-01-12T07:20:11.271Z,100316.84
2023-01-12T07:22:39.579Z,100316.00
2023-01-12T07:25:06.612Z,100313.75
2023-01-12T07:27:33.106Z,100307.50
2023-01-12T07:29:59.600Z,100305.69
2023-01-12T07:32:27.430Z,100309.19
2023-01-12T07:34:54.283Z,100307.50
2023-01-12T07:37:20.904Z,100303.25
2023-01-12T07:39:47.313Z,100292.03
2023-01-12T07:42:25.659Z,100289.41
2023-01-12T07:44:52.499Z,100287.44
2023-01-12T07:47:19.233Z,100289.00
2023-01-12T07:49:45.891Z,100279.50
2023-01-12T07:52:13.734Z,100279.66
2023-01-12T07:54:40.636Z,100280.34
2023-01-12T07:57:09.879Z,100276.28
2023-01-12T07:59:37.194Z,100280.03
2023-01-12T08:02:04.376Z,100269.97
2023-01-12T08:04:31.188Z,100273.91
2023-01-12T08:07:00.707Z,100271.13
2023-01-12T08:09:27.928Z,100272.06
2023-01-12T08:11:55.115Z,100257.84
2023-01-12T08:14:39.131Z,100265.41
2023-01-12T08:17:17.017Z,100262.41
2023-01-12T08:19:49.603Z,100255.19
2023-01-12T08:22:21.946Z,100258.84
2023-01-12T08:24:57.275Z,100252.91
2023-01-12T08:27:28.596Z,100249.47
2023-01-12T08:29:58.812Z,100254.34
2023-01-12T08:32:28.347Z,100245.13
2023-01-12T08:35:01.652Z,100245.13
2023-01-12T08:37:29.945Z,100243.56
2023-01-12T08:39:57.824Z,100234.59
2023-01-12T08:42:28.009Z,100235.59
2023-01-12T08:44:55.718Z,100234.31
2023-01-12T08:47:29.275Z,100241.78
2023-01-12T08:49:57.875Z,100234.50
2023-01-12T08:52:25.650Z,100230.16
2023-01-12T08:54:52.227Z,100230.56
2023-01-12T08:57:20.060Z,100231.00
2023-01-12T08:59:46.526Z,100219.91
2023-01-12T09:02:14.563Z,100219.91
2023-01-12T09:04:41.572Z,100223.13
2023-01-12T09:07:09.261Z,100222.44
2023-01-12T09:09:36.580Z,100217.25
2023-01-12T09:12:03.514Z,100204.22
2023-01-12T09:14:30.055Z,100195.94
2023-01-12T09:16:59.734Z,100208.44
2023-01-12T09:19:26.431Z,100209.56
2023-01-12T09:21:52.919Z,100202.00
2023-01-12T09:24:19.481Z,100197.34
2023-01-12T09:26:47.091Z,100193.59
2023-01-12T09:29:14.513Z,100195.13
2023-01-12T09:31:44.204Z,100184.75
2023-01-12T09:34:11.170Z,100193.16
2023-01-12T09:36:39.458Z,100180.38
2023-01-12T09:39:10.251Z,100169.16
2023-01-12T09:42:02.834Z,100167.88
2023-01-12T09:44:53.718Z,100166.22
2023-01-12T09:47:35.565Z,100168.31
2023-01-12T09:50:09.944Z,100155.03
2023-01-12T09:52:46.518Z,100150.59
2023-01-12T09:55:22.458Z,100146.91
2023-01-12T09:58:20.228Z,100141.19
2023-01-12T10:00:52.002Z,100141.31
2023-01-12T10:03:26.299Z,100134.88
2023-01-12T10:05:58.080Z,100149.78
2023-01-12T10:08:33.719Z,100132.06
2023-01-12T10:11:22.323Z,100133.63
2023-01-12T10:14:10.421Z,100121.44
2023-01-12T10:16:58.346Z,100127.28
2023-01-12T10:19:39.373Z,100115.00
2023-01-12T10:22:37.695Z,100110.88
2023-01-12T10:25:15.071Z,100115.69
2023-01-12T10:27:44.638Z,100115.84
2023-01-12T10:30:13.605Z,100115.16
2023-01-12T10:32:43.227Z,100109.91
2023-01-12T10:35:18.070Z,100118.38
2023-01-12T10:37:52.590Z,100102.31
2023-01-12T10:40:25.662Z,100097.09
2023-01-12T10:43:20.123Z,100102.44
2023-01-12T10:46:13.019Z,100098.13
2023-01-12T10:48:43.231Z,100095.69
2023-01-12T10:51:30.307Z,100097.81
2023-01-12T10:54:10.704Z,100087.50
2023-01-12T10:56:40.734Z,100085.38
2023-01-12T10:59:21.350Z,100077.38
2023-01-12T11:02:06.699Z,100079.25
2023-01-12T11:04:40.656Z,100078.22
2023-01-12T11:07:19.546Z,100066.94
2023-01-12T11:09:46.392Z,100057.22
2023-01-12T11:12:31.216Z,100051.38
2023-01-12T11:15:03.839Z,100042.44
2023-01-12T11:17:49.898Z,100048.75
2023-01-12T11:20:17.009Z,100034.63
2023-01-12T11:22:46.324Z,100040.09
2023-01-12T11:25:23.344Z,100043.53
2023-01-12T11:28:04.476Z,100038.09
2023-01-12T11:30:44.507Z,100030.13
2023-01-12T11:33:16.595Z,100030.06
2023-01-12T11:35:52.935Z,100028.25
2023-01-12T11:38:27.823Z,100017.84
2023-01-12T11:40:58.560Z,100017.06
2023-01-12T11:43:49.549Z,100027.75
2023-01-12T11:46:24.922Z,100014.16
2023-01-12T11:49:15.772Z,100007.47
2023-01-12T11:51:43.559Z,100006.78
2023-01-12T11:54:18.442Z,100009.50
2023-01-12T11:57:12.949Z,100010.47
2023-01-12T11:59:49.405Z,100011.19
2023-01-12T12:02:33.381Z,99996.13
2023-01-12T12:05:12.242Z,99992.72
2023-01-12T12:08:08.842Z,100019.63
2023-01-12T12:10:51.529Z,99987.13
2023-01-12T12:13:32.570Z,99985.09
2023-01-12T12:16:17.923Z,99992.63
2023-01-12T12:19:04.296Z,99989.25
2023-01-12T12:21:31.042Z,99988.00
2023-01-12T12:24:11.706Z,99994.34
2023-01-12T12:26:43.181Z,99995.53
2023-01-12T12:29:40.964Z,99974.66
2023-01-12T12:32:17.661Z,99990.09
2023-01-12T12:35:09.834Z,99972.06
2023-01-12T12:38:03.882Z,99977.69
2023-01-12T12:41:12.530Z,99982.56
2023-01-12T12:43:58.320Z,99985.91
2023-01-12T12:46:51.445Z,99981.88
2023-01-12T12:49:23.695Z,99984.41
2023-01-12T12:51:51.529Z,99979.16
2023-01-12T12:54:21.168Z,99984.94
2023-01-12T12:56:49.007Z,99983.19
2023-01-12T12:59:34.035Z,99979.06
2023-01-12T13:02:02.945Z,99990.63
2023-01-12T13:05:04.552Z,99988.81
2023-01-12T13:13:22.402Z,99977.41
2023-01-12T13:15:50.126Z,99977.31
2023-01-12T13:18:55.653Z,99988.81
2023-01-12T13:21:28.275Z,99977.47
2023-01-12T13:24:14.848Z,99989.16
2023-01-12T13:26:43.250Z,99985.84
2023-01-12T13:29:28.266Z,99976.47
2023-01-12T13:31:59.235Z,99983.56
2023-01-12T13:34:46.341Z,99984.78
2023-01-12T13:37:18.863Z,99976.84
2023-01-12T13:40:10.112Z,99977.66
2023-01-12T13:42:56.259Z,99978.63
2023-01-12T13:45:23.504Z,99976.69
2023-01-12T13:47:52.958Z,99989.94
2023-01-12T13:50:23.535Z,99984.56
2023-01-12T13:53:01.022Z,99988.56
2023-01-12T13:55:30.605Z,99994.94
2023-01-12T13:58:02.999Z,99991.16
2023-01-12T14:00:32.913Z,99987.03
2023-01-12T14:03:00.908Z,99998.47
2023-01-12T14:05:45.148Z,99981.94
2023-01-12T14:08:17.626Z,99982.34
2023-01-12T14:11:10.651Z,99987.72
2023-01-12T14:13:51.810Z,99984.53
2023-01-12T14:16:36.907Z,99974.03
2023-01-12T14:19:25.515Z,99986.13
2023-01-12T14:22:04.568Z,99985.84
2023-01-12T14:24:31.217Z,99977.00
2023-01-12T14:26:57.699Z,99986.34
2023-01-12T14:29:24.165Z,99982.41
2023-01-12T14:31:53.009Z,99978.41
2023-01-12T14:34:35.950Z,99979.94
2023-01-12T14:37:05.941Z,99980.59
2023-01-12T14:39:41.094Z,99977.81
2023-01-12T14:42:35.606Z,99981.78
2023-01-12T14:45:21.399Z,99981.25
2023-01-12T14:47:47.957Z,99970.53
2023-01-12T14:50:15.836Z,99971.75
2023-01-12T14:52:45.222Z,99973.25
2023-01-12T14:55:26.991Z,99989.25
2023-01-12T14:57:58.078Z,99986.13
2023-01-12T15:00:27.533Z,99989.84
2023-01-12T15:02:56.473Z,99986.91
2023-01-12T15:05:25.883Z,99987.47
2023-01-12T15:07:59.667Z,99989.91
2023-01-12T15:10:27.864Z,99988.59
2023-01-12T15:12:57.040Z,99975.63
2023-01-12T15:15:49.751Z,99982.09
2023-01-12T15:18:34.717Z,99983.22
2023-01-12T15:21:21.217Z,99990.22
2023-01-12T15:24:07.914Z,99993.13
2023-01-12T15:26:34.440Z,99995.78
2023-01-12T15:29:00.930Z,99994.16
2023-01-12T15:31:27.555Z,99995.38
2023-01-12T15:33:55.010Z,100001.44
2023-01-12T15:36:21.568Z,100000.53
2023-01-12T15:38:48.161Z,99984.84
2023-01-12T15:41:42.392Z,99994.97
2023-01-12T15:44:19.821Z,99998.56
2023-01-12T15:46:46.746Z,100007.59
2023-01-12T15:49:14.258Z,99992.88
2023-01-12T15:51:42.309Z,99994.63
2023-01-12T15:54:11.822Z,99985.09
2023-01-12T15:56:38.372Z,99991.63
2023-01-12T15:59:05.405Z,100004.16
2023-01-12T16:01:38.959Z,99988.94
2023-01-12T16:04:40.379Z,100000.44
2023-01-12T16:06:53.012Z,99986.28
2023-01-12T16:09:19.704Z,99992.16
2023-01-12T16:11:46.141Z,99990.59
2023-01-12T16:14:13.336Z,99998.00
2023-01-12T16:16:40.118Z,100008.88
2023-01-12T16:19:09.383Z,99995.34
2023-01-12T16:21:36.668Z,100001.06
2023-01-12T16:24:03.600Z,99996.34
2023-01-12T16:26:30.741Z,100009.41
2023-01-12T16:28:57.867Z,99994.38
2023-01-12T16:31:25.391Z,99997.03
2023-01-12T16:33:51.942Z,99999.34
2023-01-12T16:36:18.932Z,99997.66
2023-01-12T16:38:45.436Z,99998.31
2023-01-12T16:41:18.923Z,100005.78
2023-01-12T16:43:46.641Z,99998.16
2023-01-12T16:46:14.140Z,100000.00
2023-01-12T16:48:42.095Z,99999.34
2023-01-12T16:51:14.238Z,100003.09
2023-01-12T16:53:41.702Z,100001.84
2023-01-12T16:56:13.682Z,100005.63
2023-01-12T16:58:42.493Z,99995.53
2023-01-12T17:01:14.275Z,99991.53
2023-01-12T17:03:44.080Z,100003.09
2023-01-12T17:06:13.646Z,100000.47
2023-01-12T17:08:41.605Z,99999.47
2023-01-12T17:11:10.601Z,99993.47
2023-01-12T17:13:37.448Z,99995.66
2023-01-12T17:16:07.821Z,99999.56
2023-01-12T17:18:34.445Z,100003.44
2023-01-12T17:21:09.339Z,99998.00
2023-01-12T17:23:38.434Z,99989.91
2023-01-12T17:26:06.993Z,100000.88
2023-01-12T17:28:37.237Z,99994.44
2023-01-12T17:31:12.658Z,100003.19
2023-01-12T17:33:39.531Z,100004.59
2023-01-12T17:36:08.067Z,100011.81
2023-01-12T17:38:36.409Z,100007.09
2023-01-12T17:41:30.069Z,100001.75
2023-01-12T17:43:57.054Z,99999.34
2023-01-12T17:46:23.843Z,99998.53
2023-01-12T17:48:50.334Z,99998.09
2023-01-12T17:51:17.073Z,99996.78
2023-01-12T17:53:43.709Z,99996.91
2023-01-12T17:56:11.023Z,99991.69
2023-01-12T17:58:37.519Z,99991.47
2023-01-12T18:01:11.511Z,99983.13
2023-01-12T18:03:38.074Z,99985.97
2023-01-12T18:06:11.650Z,99980.84
2023-01-12T18:08:39.190Z,99983.16
2023-01-12T18:11:08.100Z,99985.59
2023-01-12T18:13:35.980Z,99988.47
2023-01-12T18:16:02.709Z,99981.88
2023-01-12T18:18:30.151Z,99982.66
2023-01-12T18:21:03.693Z,99986.84
2023-01-12T18:23:30.478Z,99982.19
2023-01-12T18:26:01.169Z,99973.22
2023-01-12T18:28:27.610Z,99989.19
2023-01-12T18:31:11.801Z,99977.50
2023-01-12T18:33:38.350Z,99986.53
2023-01-12T18:36:09.780Z,99971.84
2023-01-12T18:38:37.226Z,99963.13
2023-01-12T18:41:22.411Z,99967.03
2023-01-12T18:43:50.935Z,99965.19
2023-01-12T18:46:17.994Z,99965.72
2023-01-12T18:48:45.810Z,99962.06
2023-01-12T18:51:39.132Z,99958.50
2023-01-12T18:54:05.567Z,99949.34
2023-01-12T18:56:32.107Z,99952.50
2023-01-12T18:58:58.548Z,99952.22
2023-01-12T19:01:25.229Z,99949.53
2023-01-12T19:03:52.955Z,99951.53
2023-01-12T19:06:28.868Z,99949.19
2023-01-12T19:09:13.903Z,99946.16
2023-01-12T19:11:40.524Z,99946.16
2023-01-12T19:14:25.523Z,99947.03
2023-01-12T19:17:10.692Z,99940.81
2023-01-12T19:19:37.280Z,99944.81
2023-01-12T19:22:22.404Z,99951.38
2023-01-12T19:25:12.025Z,99953.28
2023-01-12T19:27:56.834Z,99944.56
2023-01-12T19:30:23.560Z,99940.94
2023-01-12T19:32:50.033Z,99945.16
2023-01-12T19:35:16.637Z,99927.69
2023-01-12T19:37:48.055Z,99929.75
2023-01-12T19:40:34.892Z,99943.47
2023-01-12T19:43:17.749Z,99940.00
2023-01-12T19:45:46.512Z,99942.59
2023-01-12T19:48:14.246Z,99935.19
2023-01-12T19:50:42.748Z,99951.34
2023-01-12T19:53:13.090Z,99951.91
2023-01-12T19:55:41.238Z,99940.13
2023-01-12T19:58:09.275Z,99941.56
2023-01-12T20:00:44.817Z,99945.28
2023-01-12T20:03:13.691Z,99941.94
2023-01-12T20:05:41.047Z,99946.56
2023-01-12T20:08:08.637Z,99948.72
2023-01-12T20:10:35.704Z,99940.50
2023-01-12T20:13:02.170Z,99942.94
2023-01-12T20:15:28.683Z,99941.56
2023-01-12T20:17:58.277Z,99955.28
2023-01-12T20:20:24.693Z,99941.72
2023-01-12T20:22:51.220Z,99944.50
2023-01-12T20:25:18.474Z,99938.81
2023-01-12T20:27:46.339Z,99941.19
2023-01-12T20:30:16.437Z,99947.22
2023-01-12T20:32:45.600Z,99939.41
2023-01-12T20:35:14.998Z,99933.66
2023-01-12T20:37:42.003Z,99938.31
2023-01-12T20:40:09.647Z,99934.25
2023-01-12T20:42:36.220Z,99931.94
2023-01-12T20:45:04.122Z,99929.53
2023-01-12T20:47:32.033Z,99924.13
2023-01-12T20:49:58.580Z,99927.09
2023-01-12T20:52:25.556Z,99926.13
2023-01-12T20:54:52.695Z,99928.03
2023-01-12T20:57:19.216Z,99933.84
2023-01-12T20:59:47.146Z,99930.50
2023-01-12T21:02:23.184Z,99924.13
2023-01-12T21:04:50.331Z,99926.53
2023-01-12T21:07:17.475Z,99927.56
2023-01-12T21:09:44.048Z,99936.78
2023-01-12T21:12:11.120Z,99923.28
2023-01-12T21:14:37.978Z,99921.19
2023-01-12T21:17:06.418Z,99930.03
2023-01-12T21:19:33.904Z,99921.81
2023-01-12T21:22:00.600Z,99923.50
2023-01-12T21:24:27.491Z,99922.28
2023-01-12T21:26:55.676Z,99923.19
2023-01-12T21:29:23.322Z,99916.69
2023-01-12T21:31:49.796Z,99918.59
2023-01-12T21:34:16.380Z,99910.31
2023-01-12T21:36:42.841Z,99902.78
2023-01-12T21:39:09.397Z,99909.16
2023-01-12T21:41:55.892Z,99899.03
2023-01-12T21:44:22.595Z,99904.31
2023-01-12T21:46:49.142Z,99897.28
2023-01-12T21:49:16.615Z,99898.03
2023-01-12T21:51:43.080Z,99899.56
2023-01-12T21:54:09.565Z,99903.47
2023-01-12T21:56:36.255Z,99897.78
2023-01-12T21:59:02.770Z,99900.69
2023-01-12T22:01:29.279Z,99898.13
2023-01-12T22:03:57.027Z,99895.22
2023-01-12T22:06:23.573Z,99893.72
2023-01-12T22:08:50.508Z,99893.03
2023-01-12T22:11:17.981Z,99890.00
2023-01-12T22:13:45.173Z,99886.19
2023-01-12T22:16:14.937Z,99884.22
2023-01-12T22:18:46.439Z,99887.94
2023-01-12T22:21:13.671Z,99880.09
2023-01-12T22:23:40.319Z,99880.94
2023-01-12T22:26:10.232Z,99880.47
2023-01-12T22:28:39.793Z,99861.66
2023-01-12T22:31:20.737Z,99883.13
2023-01-12T22:34:02.571Z,99870.75
2023-01-12T22:36:29.365Z,99867.97
2023-01-12T22:38:56.290Z,99860.75
2023-01-12T22:41:24.640Z,99874.13
2023-01-12T22:43:54.291Z,99868.81
2023-01-12T22:46:26.561Z,99865.78
2023-01-12T22:48:59.439Z,99855.66
2023-01-12T22:51:27.616Z,99863.47
2023-01-12T22:53:55.585Z,99867.84
2023-01-12T22:56:22.405Z,99864.94
2023-01-12T22:58:51.172Z,99848.88
2023-01-12T23:01:18.884Z,99848.75
2023-01-12T23:03:45.987Z,99855.00
2023-01-12T23:06:15.096Z,99846.03
2023-01-12T23:08:45.516Z,99852.75
2023-01-12T23:11:20.427Z,99833.31
2023-01-12T23:13:46.917Z,99820.56
2023-01-12T23:16:15.923Z,99846.13
2023-01-12T23:18:44.467Z,99850.41
2023-01-12T23:21:16.378Z,99845.47
2023-01-12T23:23:51.878Z,99851.53
2023-01-12T23:26:24.559Z,99826.59
2023-01-12T23:28:57.317Z,99832.75
2023-01-12T23:31:26.643Z,99834.41
2023-01-12T23:33:53.264Z,99831.84
2023-01-12T23:36:22.111Z,99824.19
2023-01-12T23:38:56.029Z,99833.97
2023-01-12T23:41:25.124Z,99829.63
2023-01-12T23:43:53.285Z,99819.88
2023-01-12T23:46:23.354Z,99818.75
2023-01-12T23:48:51.470Z,99815.72
2023-01-12T23:51:18.056Z,99818.75
2023-01-12T23:53:45.210Z,99816.16
2023-01-12T23:56:14.624Z,99823.16
2023-01-12T23:58:41.928Z,99832.88
